Gibson, Australia
Current Conditions -  °F | °C
As of 3:00 PM on Sunday 26 Oct 2014 (Local Time) from YESP Reporting Station
Broken Clouds Broken Clouds  
Wind Chill: 64°   Ceiling: 2900
Heat Index: 64°   Visibility: 6mi
Dew Point: 54°   Wind: 24mph
Humidity: 68%   Direction: 220°SW
Pressure: 30.12"   Gusts: NA
Location:  33.64°S, 121.81°E
Report Text: YESP 260700Z AUTO 22021KT 9999 // BKN029 18/12 Q1020
Loading
Personal Weather Stations






























Interactive Weather Map
Tropical Storm Tracking
New forecast layout! Learn more

10-Day Weather Forecast

Advertisements
Track Severe Weather on mobile